createdAt,value
2023-02-19T00:02:47.963Z,78.63
2023-02-19T00:04:22.644Z,78.96
2023-02-19T00:05:54.719Z,79.25
2023-02-19T00:07:26.775Z,79.22
2023-02-19T00:08:59.419Z,79.37
2023-02-19T00:10:31.598Z,79.36
2023-02-19T00:12:03.775Z,79.30
2023-02-19T00:13:43.815Z,79.47
2023-02-19T00:15:15.854Z,79.71
2023-02-19T00:16:48.282Z,79.65
2023-02-19T00:18:20.290Z,79.65
2023-02-19T00:19:52.416Z,79.69
2023-02-19T00:21:24.814Z,79.72
2023-02-19T00:22:56.826Z,79.43
2023-02-19T00:24:28.993Z,79.41
2023-02-19T00:26:18.101Z,79.17
2023-02-19T00:27:50.736Z,79.05
2023-02-19T00:29:23.097Z,78.97
2023-02-19T00:30:55.336Z,78.67
2023-02-19T00:32:27.307Z,78.63
2023-02-19T00:34:01.901Z,78.37
2023-02-19T00:37:10.041Z,78.40
2023-02-19T00:38:43.329Z,78.36
2023-02-19T00:40:15.431Z,78.50
2023-02-19T00:41:47.943Z,78.29
2023-02-19T00:43:19.947Z,78.13
2023-02-19T00:44:51.989Z,78.07
2023-02-19T00:46:28.859Z,77.66
2023-02-19T00:48:00.952Z,77.77
2023-02-19T00:49:32.965Z,77.96
2023-02-19T00:51:05.048Z,78.22
2023-02-19T00:52:37.300Z,78.48
2023-02-19T00:54:11.012Z,78.07
2023-02-19T00:55:43.641Z,78.37
2023-02-19T00:57:15.614Z,78.55
2023-02-19T00:58:48.290Z,78.75
2023-02-19T01:00:23.038Z,78.46
2023-02-19T01:01:55.066Z,78.91
2023-02-19T01:03:27.432Z,78.72
2023-02-19T01:04:59.585Z,78.86
2023-02-19T01:06:32.855Z,79.07
2023-02-19T01:08:04.984Z,79.09
2023-02-19T01:09:38.446Z,79.30
2023-02-19T01:12:42.407Z,79.34
2023-02-19T01:14:14.595Z,79.69
2023-02-19T01:15:46.767Z,79.66
2023-02-19T01:17:18.823Z,79.92
2023-02-19T01:18:51.841Z,79.83
2023-02-19T01:20:23.941Z,79.92
2023-02-19T01:21:55.910Z,79.94
2023-02-19T01:23:27.949Z,79.90
2023-02-19T01:25:02.138Z,80.10
2023-02-19T01:26:34.517Z,80.47
2023-02-19T01:28:06.842Z,80.30
2023-02-19T01:29:39.002Z,80.23
2023-02-19T01:31:14.390Z,79.96
2023-02-19T01:32:46.647Z,79.76
2023-02-19T01:34:18.663Z,79.66
2023-02-19T01:35:50.728Z,79.49
2023-02-19T01:37:22.694Z,79.41
2023-02-19T01:38:55.174Z,79.00
2023-02-19T01:40:27.311Z,78.97
2023-02-19T01:41:59.332Z,78.90
2023-02-19T01:43:36.468Z,78.56
2023-02-19T01:45:14.596Z,78.08
2023-02-19T01:46:48.819Z,78.19
2023-02-19T01:48:25.770Z,78.12
2023-02-19T01:49:58.193Z,78.30
2023-02-19T01:51:31.719Z,78.24
2023-02-19T01:53:05.931Z,77.76
2023-02-19T01:54:38.947Z,77.56
2023-02-19T01:56:12.376Z,77.64
2023-02-19T01:57:47.320Z,78.00
2023-02-19T01:59:19.483Z,78.07
2023-02-19T02:00:52.178Z,78.08
2023-02-19T02:02:25.475Z,78.22
2023-02-19T02:03:57.895Z,78.59
2023-02-19T02:06:03.651Z,78.06
2023-02-19T02:07:54.363Z,78.23
2023-02-19T02:09:46.845Z,78.30
2023-02-19T02:11:20.132Z,78.54
2023-02-19T02:12:53.894Z,78.60
2023-02-19T02:14:29.222Z,78.75
2023-02-19T02:16:10.801Z,78.18
2023-02-19T02:18:01.966Z,78.32
2023-02-19T02:20:01.431Z,78.48
2023-02-19T02:22:02.379Z,78.75
2023-02-19T02:23:55.535Z,78.95
2023-02-19T02:25:39.813Z,78.97
2023-02-19T02:27:29.101Z,79.20
2023-02-19T02:29:28.295Z,79.30
2023-02-19T02:31:04.967Z,79.19
2023-02-19T02:33:15.091Z,79.06
2023-02-19T02:34:54.975Z,79.19
2023-02-19T02:36:30.590Z,79.07
2023-02-19T02:38:06.810Z,79.36
2023-02-19T02:39:39.558Z,79.01
2023-02-19T02:41:13.328Z,78.96
2023-02-19T02:42:45.434Z,79.05
2023-02-19T02:44:17.541Z,79.11
2023-02-19T02:45:49.858Z,79.17
2023-02-19T02:47:40.357Z,79.42
2023-02-19T02:49:17.943Z,79.51
2023-02-19T02:50:54.701Z,79.16
2023-02-19T02:52:45.065Z,79.15
2023-02-19T02:54:41.143Z,79.01
2023-02-19T02:56:14.802Z,79.06
2023-02-19T02:57:46.954Z,78.66
2023-02-19T02:59:22.701Z,78.52
2023-02-19T03:01:20.704Z,78.41
2023-02-19T03:02:53.154Z,78.32
2023-02-19T03:05:15.294Z,78.52
2023-02-19T03:06:48.414Z,78.19
2023-02-19T03:08:20.465Z,77.89
2023-02-19T03:09:52.874Z,77.75
2023-02-19T03:11:43.940Z,77.96
2023-02-19T03:15:20.304Z,77.65
2023-02-19T03:17:16.579Z,78.30
2023-02-19T03:19:10.760Z,78.15
2023-02-19T03:20:46.294Z,78.05
2023-02-19T03:22:23.368Z,77.89
2023-02-19T03:24:15.304Z,78.32
2023-02-19T03:26:05.530Z,78.23
2023-02-19T03:27:39.380Z,78.62
2023-02-19T03:29:24.544Z,78.90
2023-02-19T03:30:56.633Z,78.95
2023-02-19T03:32:50.158Z,78.88
2023-02-19T03:34:29.920Z,79.09
2023-02-19T03:36:04.649Z,78.90
2023-02-19T03:37:42.455Z,78.80
2023-02-19T03:39:17.615Z,78.76
2023-02-19T03:40:57.505Z,78.52
2023-02-19T03:42:49.848Z,78.43
2023-02-19T03:44:30.762Z,78.16
2023-02-19T03:46:23.587Z,77.94
2023-02-19T03:48:10.455Z,77.87
2023-02-19T03:50:21.282Z,77.51
2023-02-19T03:52:25.311Z,77.72
2023-02-19T03:54:39.661Z,77.58
2023-02-19T03:56:20.331Z,77.76
2023-02-19T03:57:59.089Z,78.22
2023-02-19T03:59:57.294Z,78.47
2023-02-19T04:01:33.608Z,78.67
2023-02-19T04:04:02.459Z,78.58
2023-02-19T04:05:38.894Z,78.80
2023-02-19T04:07:11.035Z,78.73
2023-02-19T04:08:48.235Z,78.51
2023-02-19T04:10:21.157Z,78.58
2023-02-19T04:11:54.501Z,78.67
2023-02-19T04:13:56.964Z,78.61
2023-02-19T04:15:31.972Z,79.11
2023-02-19T04:17:08.295Z,79.60
2023-02-19T04:18:42.052Z,79.65
2023-02-19T04:20:14.809Z,79.97
2023-02-19T04:21:47.671Z,79.98
2023-02-19T04:23:23.127Z,79.91
2023-02-19T04:24:55.927Z,79.80
2023-02-19T04:26:28.490Z,79.80
2023-02-19T04:28:00.797Z,79.89
2023-02-19T04:29:32.988Z,79.89
2023-02-19T04:31:05.191Z,79.74
2023-02-19T04:32:37.330Z,79.83
2023-02-19T04:34:09.269Z,79.84
2023-02-19T04:35:41.369Z,79.94
2023-02-19T04:37:13.468Z,79.60
2023-02-19T04:38:46.586Z,79.88
2023-02-19T04:40:18.734Z,79.84
2023-02-19T04:41:50.749Z,79.81
2023-02-19T04:43:22.775Z,79.24
2023-02-19T04:44:54.890Z,79.17
2023-02-19T04:46:27.039Z,79.36
2023-02-19T04:47:59.293Z,79.29
2023-02-19T04:49:31.245Z,79.67
2023-02-19T04:51:07.593Z,79.75
2023-02-19T04:52:39.749Z,79.80
2023-02-19T04:54:11.744Z,79.92
2023-02-19T04:55:43.732Z,79.93
2023-02-19T04:57:15.750Z,80.13
2023-02-19T04:58:47.974Z,80.57
2023-02-19T05:00:20.102Z,80.43
2023-02-19T05:01:52.238Z,80.34
2023-02-19T05:03:24.315Z,80.36
2023-02-19T05:04:56.470Z,80.24
2023-02-19T05:06:28.546Z,80.38
2023-02-19T05:08:00.604Z,80.30
2023-02-19T05:09:32.637Z,80.32
2023-02-19T05:11:06.835Z,80.11
2023-02-19T05:12:38.922Z,79.95
2023-02-19T05:14:10.930Z,80.01
2023-02-19T05:15:42.974Z,79.83
2023-02-19T05:17:15.104Z,79.77
2023-02-19T05:18:47.761Z,79.74
2023-02-19T05:20:19.756Z,79.38
2023-02-19T05:21:51.748Z,79.37
2023-02-19T05:23:23.865Z,79.73
2023-02-19T05:24:55.950Z,80.21
2023-02-19T05:26:28.133Z,80.32
2023-02-19T05:28:17.332Z,80.39
2023-02-19T05:29:49.280Z,80.76
2023-02-19T05:31:23.000Z,80.72
2023-02-19T05:32:55.744Z,80.59
2023-02-19T05:34:27.696Z,80.79
2023-02-19T05:35:59.842Z,80.53
2023-02-19T05:37:31.935Z,80.68
2023-02-19T05:39:04.006Z,80.63
2023-02-19T05:40:36.207Z,80.63
2023-02-19T05:42:08.253Z,80.63
2023-02-19T05:43:41.092Z,80.86
2023-02-19T05:45:13.214Z,80.85
2023-02-19T05:46:45.281Z,80.92
2023-02-19T05:48:17.302Z,80.84
2023-02-19T05:49:49.379Z,80.89
2023-02-19T05:52:54.277Z,80.62
2023-02-19T05:54:29.422Z,80.53
2023-02-19T05:56:02.090Z,80.52
2023-02-19T05:57:34.129Z,80.70
2023-02-19T05:59:26.902Z,80.87
2023-02-19T06:00:58.948Z,81.07
2023-02-19T06:02:30.975Z,81.16
2023-02-19T06:04:03.176Z,81.22
2023-02-19T06:05:35.246Z,81.07
2023-02-19T06:07:07.291Z,81.03
2023-02-19T06:08:39.284Z,80.83
2023-02-19T06:10:12.456Z,80.85
2023-02-19T06:11:45.122Z,81.03
2023-02-19T06:13:17.904Z,81.29
2023-02-19T06:14:50.248Z,81.26
2023-02-19T06:16:22.430Z,81.38
2023-02-19T06:17:54.466Z,81.21
2023-02-19T06:19:26.482Z,81.38
2023-02-19T06:21:03.186Z,81.06
2023-02-19T06:22:35.146Z,81.08
2023-02-19T06:24:08.920Z,80.82
2023-02-19T06:25:41.025Z,80.84
2023-02-19T06:27:13.145Z,80.58
2023-02-19T06:28:46.256Z,80.53
2023-02-19T06:30:18.574Z,80.16
2023-02-19T06:31:50.722Z,80.15
2023-02-19T06:33:22.758Z,80.78
2023-02-19T06:34:54.837Z,80.76
2023-02-19T06:36:26.994Z,80.84
2023-02-19T06:37:59.042Z,80.51
2023-02-19T06:39:31.108Z,80.46
2023-02-19T06:41:05.282Z,80.02
2023-02-19T06:42:37.423Z,79.73
2023-02-19T06:44:09.519Z,79.68
2023-02-19T06:45:41.539Z,79.49
2023-02-19T06:47:13.582Z,79.20
2023-02-19T06:48:46.259Z,78.97
2023-02-19T06:50:18.305Z,78.66
2023-02-19T06:51:50.379Z,78.32
2023-02-19T06:53:22.899Z,78.36
2023-02-19T06:54:55.032Z,78.19
2023-02-19T06:56:32.444Z,78.13
2023-02-19T06:58:04.570Z,78.21
2023-02-19T06:59:36.624Z,77.68
2023-02-19T07:01:12.229Z,76.38
2023-02-19T07:02:44.498Z,74.18
2023-02-19T07:04:16.636Z,73.00
2023-02-19T07:05:48.933Z,70.01
2023-02-19T07:07:21.046Z,68.41
2023-02-19T07:08:54.450Z,63.44
2023-02-19T07:10:26.638Z,62.39
2023-02-19T07:11:58.658Z,60.94
2023-02-19T07:13:30.818Z,60.14
2023-02-19T07:15:02.922Z,59.59
2023-02-19T07:16:36.192Z,57.43
2023-02-19T07:18:10.716Z,56.40
2023-02-19T07:19:45.170Z,55.83
2023-02-19T07:21:18.423Z,54.34
2023-02-19T07:22:50.826Z,54.03
2023-02-19T07:24:23.115Z,54.19
2023-02-19T07:25:55.177Z,53.99
2023-02-19T07:27:27.306Z,52.45
2023-02-19T07:28:59.492Z,52.67
2023-02-19T07:30:31.518Z,52.15
2023-02-19T07:32:06.015Z,51.46
2023-02-19T07:33:38.528Z,51.31
2023-02-19T07:35:10.592Z,50.92
2023-02-19T07:36:42.756Z,51.10
2023-02-19T07:38:18.497Z,50.87
2023-02-19T07:39:50.886Z,50.45
2023-02-19T07:41:24.178Z,50.27
2023-02-19T07:42:56.235Z,50.04
2023-02-19T07:44:28.349Z,49.68
2023-02-19T07:46:04.118Z,49.61
2023-02-19T07:47:36.275Z,49.07
2023-02-19T07:49:08.386Z,48.91
2023-02-19T07:50:40.654Z,49.19
2023-02-19T07:52:12.718Z,48.77
2023-02-19T07:53:45.434Z,48.42
2023-02-19T07:55:17.559Z,48.41
2023-02-19T07:56:49.628Z,48.40
2023-02-19T07:58:21.681Z,48.94
2023-02-19T07:59:53.707Z,48.43
2023-02-19T08:01:45.614Z,47.99
2023-02-19T08:03:17.624Z,47.79
2023-02-19T08:04:52.768Z,47.43
2023-02-19T08:06:24.804Z,47.77
2023-02-19T08:07:57.606Z,47.15
2023-02-19T08:09:29.692Z,47.57
2023-02-19T08:11:21.091Z,47.12
2023-02-19T08:13:16.016Z,46.04
2023-02-19T08:14:48.033Z,45.98
2023-02-19T08:16:33.103Z,45.60
2023-02-19T08:18:14.259Z,45.49
2023-02-19T08:19:46.115Z,45.40
2023-02-19T08:21:21.363Z,45.38
2023-02-19T08:22:53.448Z,45.05
2023-02-19T08:25:59.463Z,45.24
2023-02-19T08:27:31.445Z,44.65
2023-02-19T08:29:05.025Z,44.32
2023-02-19T08:30:38.858Z,44.70
2023-02-19T08:32:10.982Z,44.34
2023-02-19T08:33:43.421Z,43.85
2023-02-19T08:35:15.588Z,43.61
2023-02-19T08:36:47.913Z,42.92
2023-02-19T08:38:21.486Z,42.66
2023-02-19T08:39:56.472Z,42.08
2023-02-19T08:41:28.634Z,42.34
2023-02-19T08:43:09.300Z,42.36
2023-02-19T08:44:41.642Z,42.06
2023-02-19T08:46:13.952Z,40.86
2023-02-19T08:47:46.298Z,40.88
2023-02-19T08:49:18.414Z,40.90
2023-02-19T08:50:59.495Z,40.61
2023-02-19T08:52:31.947Z,40.41
2023-02-19T08:54:04.691Z,40.20
2023-02-19T08:55:38.711Z,40.32
2023-02-19T08:57:10.832Z,40.03
2023-02-19T08:58:43.349Z,39.96
2023-02-19T09:00:15.832Z,40.10
2023-02-19T09:01:48.090Z,39.79
2023-02-19T09:03:20.272Z,39.06
2023-02-19T09:04:52.520Z,38.81
2023-02-19T09:06:24.601Z,38.79
2023-02-19T09:07:57.412Z,38.59
2023-02-19T09:09:29.678Z,38.82
2023-02-19T09:11:03.779Z,38.93
2023-02-19T09:12:35.858Z,38.77
2023-02-19T09:14:08.184Z,38.38
2023-02-19T09:15:40.379Z,38.24
2023-02-19T09:17:13.094Z,38.26
2023-02-19T09:18:46.207Z,38.37
2023-02-19T09:20:18.476Z,38.06
2023-02-19T09:21:50.628Z,38.48
2023-02-19T09:23:23.184Z,38.44
2023-02-19T09:24:55.519Z,38.64
2023-02-19T09:26:27.748Z,38.48
2023-02-19T09:27:59.908Z,38.53
2023-02-19T09:29:32.003Z,38.26
2023-02-19T09:31:06.061Z,37.83
2023-02-19T09:32:38.136Z,38.17
2023-02-19T09:34:10.561Z,38.04
2023-02-19T09:35:42.588Z,38.35
2023-02-19T09:37:14.696Z,38.12
2023-02-19T09:38:46.888Z,37.61
2023-02-19T09:40:21.945Z,37.52
2023-02-19T09:41:59.554Z,37.61
2023-02-19T09:43:31.714Z,37.13
2023-02-19T09:45:05.047Z,37.52
2023-02-19T09:46:43.684Z,36.72
2023-02-19T09:48:15.911Z,37.08
2023-02-19T09:49:52.864Z,37.15
2023-02-19T09:51:26.503Z,37.68
2023-02-19T09:53:00.126Z,37.43
2023-02-19T09:56:05.396Z,36.97
2023-02-19T09:57:37.621Z,36.85
2023-02-19T09:59:20.081Z,37.14
2023-02-19T10:00:52.865Z,37.18
2023-02-19T10:02:26.176Z,37.31
2023-02-19T10:03:58.141Z,36.83
2023-02-19T10:05:30.592Z,37.57
2023-02-19T10:07:04.044Z,36.94
2023-02-19T10:08:38.243Z,37.10
2023-02-19T10:10:23.207Z,37.60
2023-02-19T10:11:56.865Z,37.89
2023-02-19T10:13:51.329Z,37.14
2023-02-19T10:15:39.555Z,37.65
2023-02-19T10:17:25.519Z,37.21
2023-02-19T10:18:57.629Z,37.23
2023-02-19T10:20:30.125Z,37.57
2023-02-19T10:22:06.914Z,37.30
2023-02-19T10:23:40.340Z,37.47
2023-02-19T10:25:18.944Z,37.57
2023-02-19T10:26:50.982Z,38.10
2023-02-19T10:28:34.154Z,37.57
2023-02-19T10:30:06.913Z,37.64
2023-02-19T10:31:39.200Z,37.22
2023-02-19T10:33:16.316Z,37.33
2023-02-19T10:34:48.442Z,36.97
2023-02-19T10:36:32.155Z,36.88
2023-02-19T10:38:07.079Z,36.82
2023-02-19T10:39:44.011Z,36.62
2023-02-19T10:41:21.178Z,36.61
2023-02-19T10:43:04.224Z,36.59
2023-02-19T10:44:42.166Z,36.38
2023-02-19T10:46:19.716Z,36.39
2023-02-19T10:47:52.080Z,36.36
2023-02-19T10:49:34.461Z,36.99
2023-02-19T10:51:09.213Z,35.84
2023-02-19T10:54:19.919Z,36.11
2023-02-19T10:56:11.711Z,36.64
2023-02-19T10:57:43.879Z,36.44
2023-02-19T10:59:28.291Z,36.31
2023-02-19T11:01:21.321Z,36.65
2023-02-19T11:03:22.584Z,36.24
2023-02-19T11:05:20.861Z,36.30
2023-02-19T11:06:53.072Z,36.59
2023-02-19T11:08:25.371Z,36.87
2023-02-19T11:09:57.853Z,36.93
2023-02-19T11:11:36.140Z,36.86
2023-02-19T11:13:15.021Z,36.98
2023-02-19T11:14:47.093Z,37.04
2023-02-19T11:16:19.140Z,36.75
2023-02-19T11:17:57.734Z,36.15
2023-02-19T11:19:29.798Z,35.86
2023-02-19T11:21:04.858Z,35.39
2023-02-19T11:22:40.023Z,35.67
2023-02-19T11:24:34.527Z,35.96
2023-02-19T11:26:14.602Z,36.26
2023-02-19T11:27:58.575Z,35.67
2023-02-19T11:29:35.022Z,36.45
2023-02-19T11:31:20.684Z,36.60
2023-02-19T11:32:52.983Z,36.68
2023-02-19T11:34:30.428Z,36.17
2023-02-19T11:36:30.102Z,36.56
2023-02-19T11:38:02.778Z,36.58
2023-02-19T11:39:36.025Z,36.37
2023-02-19T11:41:28.400Z,36.21
2023-02-19T11:43:26.682Z,36.05
2023-02-19T11:45:13.787Z,36.05
2023-02-19T11:47:24.545Z,35.72
2023-02-19T11:49:05.109Z,36.14
2023-02-19T11:50:53.524Z,35.81
2023-02-19T11:53:07.219Z,36.31
2023-02-19T11:54:52.320Z,36.16
2023-02-19T11:56:34.188Z,37.01
2023-02-19T11:58:49.955Z,36.37
2023-02-19T12:00:30.585Z,36.28
2023-02-19T12:02:28.791Z,36.05
2023-02-19T12:04:22.035Z,36.44
2023-02-19T12:06:00.113Z,35.36
2023-02-19T12:08:09.837Z,35.53
2023-02-19T12:09:57.147Z,35.29
2023-02-19T12:11:49.535Z,35.82
2023-02-19T12:13:48.798Z,34.76
2023-02-19T12:15:24.090Z,35.12
2023-02-19T12:17:24.143Z,34.97
2023-02-19T12:19:02.268Z,34.94
2023-02-19T12:21:07.135Z,34.33
2023-02-19T12:22:55.643Z,34.18
2023-02-19T12:24:30.607Z,34.46
2023-02-19T12:26:33.147Z,35.29
2023-02-19T12:28:19.585Z,34.85
2023-02-19T12:30:22.381Z,35.57
2023-02-19T12:32:15.439Z,36.62
2023-02-19T12:34:08.657Z,36.96
2023-02-19T12:35:47.956Z,37.57
2023-02-19T12:37:38.938Z,37.23
2023-02-19T12:39:35.154Z,37.62
2023-02-19T12:41:25.945Z,37.73
2023-02-19T12:43:14.347Z,37.63
2023-02-19T12:44:54.540Z,37.45
2023-02-19T12:46:29.964Z,38.81
2023-02-19T12:48:40.408Z,37.41
2023-02-19T12:50:31.352Z,37.48
2023-02-19T12:52:21.164Z,36.79
2023-02-19T12:53:57.646Z,37.17
2023-02-19T12:55:36.898Z,36.83
2023-02-19T12:57:25.523Z,36.29
2023-02-19T12:59:02.666Z,37.97
2023-02-19T13:00:56.977Z,38.15
2023-02-19T13:02:29.209Z,38.21
2023-02-19T13:04:24.912Z,36.80
2023-02-19T13:06:42.112Z,36.91
2023-02-19T13:08:35.571Z,37.22
2023-02-19T13:10:11.220Z,36.74
2023-02-19T13:11:53.901Z,37.59
2023-02-19T13:13:31.350Z,36.82
2023-02-19T13:15:14.299Z,37.08
2023-02-19T13:16:49.998Z,37.91
2023-02-19T13:18:27.352Z,37.34
2023-02-19T13:21:56.034Z,37.38
2023-02-19T13:23:50.468Z,37.08
2023-02-19T13:25:22.930Z,36.77
2023-02-19T13:27:12.877Z,37.56
2023-02-19T13:29:10.050Z,36.80
2023-02-19T13:31:17.255Z,37.16
2023-02-19T13:33:01.396Z,37.70
2023-02-19T13:34:49.594Z,38.48
2023-02-19T13:36:29.243Z,38.03
2023-02-19T13:38:02.866Z,38.05
2023-02-19T13:39:35.104Z,37.92
2023-02-19T13:41:07.687Z,37.83
2023-02-19T13:42:39.934Z,37.31
2023-02-19T13:44:23.784Z,37.83
2023-02-19T13:45:56.983Z,38.84
2023-02-19T13:47:49.446Z,37.79
2023-02-19T13:49:32.745Z,37.87
2023-02-19T13:51:17.432Z,37.92
2023-02-19T13:52:50.338Z,38.49
2023-02-19T13:54:33.835Z,38.92
2023-02-19T13:56:28.490Z,38.34
2023-02-19T13:58:40.638Z,38.24
2023-02-19T14:00:49.586Z,39.90
2023-02-19T14:02:21.812Z,38.89
2023-02-19T14:03:55.988Z,39.97
2023-02-19T14:05:59.996Z,39.25
2023-02-19T14:07:32.100Z,39.05
2023-02-19T14:09:04.136Z,40.47
2023-02-19T14:10:51.187Z,39.40
2023-02-19T14:12:35.575Z,39.47
2023-02-19T14:14:29.390Z,39.56
2023-02-19T14:16:01.436Z,39.55
2023-02-19T14:17:36.331Z,39.69
2023-02-19T14:20:46.889Z,39.68
2023-02-19T14:22:46.908Z,40.04
2023-02-19T14:24:19.036Z,40.23
2023-02-19T14:25:54.407Z,41.04
2023-02-19T14:27:26.566Z,40.83
2023-02-19T14:29:02.547Z,41.11
2023-02-19T15:25:24.586Z,43.72
2023-02-19T15:26:56.983Z,43.88
2023-02-19T15:28:33.617Z,44.33
2023-02-19T15:30:24.617Z,44.27
2023-02-19T15:31:59.600Z,45.11
2023-02-19T15:33:34.870Z,44.74
2023-02-19T15:35:07.139Z,45.23
2023-02-19T15:36:39.455Z,45.29
2023-02-19T15:38:13.014Z,45.28
2023-02-19T15:39:46.861Z,45.40
2023-02-19T15:41:20.423Z,45.81
2023-02-19T15:42:52.532Z,46.11
2023-02-19T15:44:27.180Z,46.77
2023-02-19T15:46:03.541Z,47.54
2023-02-19T15:47:58.377Z,47.36
2023-02-19T15:49:57.824Z,47.30
2023-02-19T15:51:39.656Z,46.93
2023-02-19T15:53:20.114Z,47.20
2023-02-19T15:55:19.161Z,47.48
2023-02-19T15:56:51.263Z,47.60
2023-02-19T15:58:46.006Z,47.56
2023-02-19T16:00:21.979Z,47.82
2023-02-19T16:01:54.323Z,48.04
2023-02-19T16:03:28.164Z,48.40
2023-02-19T16:05:02.663Z,48.53
2023-02-19T16:06:52.101Z,48.80
2023-02-19T16:08:30.927Z,49.01
2023-02-19T16:10:21.642Z,49.63
2023-02-19T16:11:55.381Z,49.96
2023-02-19T16:13:30.732Z,49.77
2023-02-19T16:15:13.502Z,50.51
2023-02-19T16:16:46.829Z,50.44
2023-02-19T16:18:18.783Z,50.63
2023-02-19T16:20:05.082Z,50.87
2023-02-19T16:21:37.400Z,51.50
2023-02-19T16:23:15.362Z,51.70
2023-02-19T16:24:55.237Z,51.53
2023-02-19T16:26:28.311Z,51.98
2023-02-19T16:28:00.469Z,51.76
2023-02-19T16:29:33.682Z,52.25
2023-02-19T16:31:06.670Z,52.15
2023-02-19T16:32:38.733Z,51.95
2023-02-19T16:34:29.868Z,52.17
2023-02-19T16:36:33.942Z,52.47
2023-02-19T16:38:17.326Z,52.65
2023-02-19T16:40:00.410Z,52.92
2023-02-19T16:41:33.010Z,53.71
2023-02-19T16:43:04.987Z,53.59
2023-02-19T16:44:37.816Z,54.23
2023-02-19T16:46:11.624Z,54.89
2023-02-19T16:47:48.748Z,55.05
2023-02-19T16:49:21.637Z,54.88
2023-02-19T16:50:56.290Z,54.91
2023-02-19T16:52:29.137Z,55.40
2023-02-19T16:54:01.347Z,55.33
2023-02-19T16:55:34.973Z,56.06
2023-02-19T16:57:07.086Z,57.09
2023-02-19T17:00:23.293Z,56.46
2023-02-19T17:01:55.497Z,56.34
2023-02-19T17:03:28.235Z,56.39
2023-02-19T17:05:01.046Z,56.44
2023-02-19T17:06:35.093Z,56.27
2023-02-19T17:08:31.861Z,56.31
2023-02-19T17:10:04.062Z,56.32
2023-02-19T17:11:36.527Z,56.45
2023-02-19T17:13:09.187Z,56.52
2023-02-19T17:14:41.349Z,56.76
2023-02-19T17:16:25.351Z,57.59
2023-02-19T17:17:57.505Z,58.08
2023-02-19T17:19:29.621Z,58.38
2023-02-19T17:21:21.037Z,58.36
2023-02-19T17:22:53.165Z,58.07
2023-02-19T17:24:25.618Z,58.63
2023-02-19T17:25:57.697Z,58.89
2023-02-19T17:27:29.730Z,59.15
2023-02-19T17:29:04.638Z,59.38
2023-02-19T17:30:38.842Z,59.67
2023-02-19T17:33:57.746Z,59.80
2023-02-19T17:35:29.892Z,60.30
2023-02-19T17:37:01.890Z,60.24
2023-02-19T17:38:33.986Z,59.94
2023-02-19T17:40:32.218Z,60.44
2023-02-19T17:42:06.380Z,59.88
2023-02-19T17:43:38.358Z,61.12
2023-02-19T17:45:10.370Z,61.33
2023-02-19T17:46:42.514Z,61.73
2023-02-19T17:48:15.278Z,62.04
2023-02-19T17:49:47.447Z,61.95
2023-02-19T17:51:19.759Z,61.87
2023-02-19T17:52:51.907Z,61.80
2023-02-19T17:54:23.941Z,61.89
2023-02-19T17:55:55.986Z,62.04
2023-02-19T17:57:33.010Z,61.92
2023-02-19T17:59:05.072Z,62.00
2023-02-19T18:00:37.182Z,61.84
2023-02-19T18:02:09.395Z,61.93
2023-02-19T18:03:41.752Z,61.59
2023-02-19T18:05:14.272Z,62.08
2023-02-19T18:06:46.518Z,61.85
2023-02-19T18:08:18.727Z,61.75
2023-02-19T18:09:51.084Z,62.12
2023-02-19T18:11:24.156Z,61.96
2023-02-19T18:12:56.611Z,62.30
2023-02-19T18:14:28.669Z,61.94
2023-02-19T18:16:00.733Z,61.49
2023-02-19T18:17:32.874Z,61.70
2023-02-19T18:19:04.970Z,61.48
2023-02-19T18:20:37.333Z,60.92
2023-02-19T18:22:09.352Z,61.28
2023-02-19T18:23:41.529Z,61.44
2023-02-19T18:25:13.704Z,61.12
2023-02-19T18:26:45.950Z,61.33
2023-02-19T18:28:18.087Z,61.30
2023-02-19T18:29:55.556Z,61.37
2023-02-19T18:31:27.714Z,61.95
2023-02-19T18:32:59.799Z,62.21
2023-02-19T18:34:31.832Z,62.21
2023-02-19T18:36:04.399Z,62.59
2023-02-19T18:37:36.411Z,62.58
2023-02-19T18:39:08.422Z,62.41
2023-02-19T18:40:40.528Z,62.91
2023-02-19T18:43:44.333Z,62.63
2023-02-19T18:45:16.441Z,63.01
2023-02-19T18:46:48.963Z,63.14
2023-02-19T18:48:20.973Z,63.11
2023-02-19T18:49:55.674Z,62.78
2023-02-19T18:51:27.729Z,62.64
2023-02-19T18:53:00.032Z,62.79
2023-02-19T18:54:32.790Z,62.98
2023-02-19T18:56:05.762Z,63.77
2023-02-19T18:57:38.314Z,63.45
2023-02-19T18:59:10.478Z,63.51
2023-02-19T19:00:42.597Z,64.32
2023-02-19T19:02:15.377Z,64.20
2023-02-19T19:03:47.404Z,64.67
2023-02-19T19:05:24.324Z,64.49
2023-02-19T19:06:56.347Z,64.51
2023-02-19T19:08:30.592Z,64.61
2023-02-19T19:10:02.888Z,64.52
2023-02-19T19:11:35.263Z,65.90
2023-02-19T19:13:07.454Z,65.54
2023-02-19T19:14:39.532Z,66.00
2023-02-19T19:16:11.907Z,65.30
2023-02-19T19:17:44.050Z,65.03
2023-02-19T19:19:16.527Z,65.33
2023-02-19T19:20:48.529Z,64.89
2023-02-19T19:22:23.096Z,64.91
2023-02-19T19:23:55.158Z,64.48
2023-02-19T19:25:27.186Z,64.52
2023-02-19T19:26:59.199Z,64.02
2023-02-19T19:28:31.692Z,64.30
2023-02-19T19:30:05.309Z,64.99
2023-02-19T19:31:37.783Z,64.48
2023-02-19T19:33:11.938Z,65.34
2023-02-19T19:34:44.226Z,65.11
2023-02-19T19:36:20.264Z,65.13
2023-02-19T19:37:54.856Z,64.93
2023-02-19T19:39:26.952Z,64.75
2023-02-19T19:40:59.154Z,65.23
2023-02-19T19:42:31.332Z,64.96
2023-02-19T19:44:07.019Z,64.63
2023-02-19T19:47:22.070Z,65.30
2023-02-19T19:48:54.321Z,65.45
2023-02-19T19:50:26.430Z,65.68
2023-02-19T19:52:01.373Z,65.35
2023-02-19T19:53:33.446Z,65.78
2023-02-19T19:55:06.437Z,65.93
2023-02-19T19:56:42.485Z,66.10
2023-02-19T19:58:14.546Z,66.46
2023-02-19T19:59:51.361Z,66.68
2023-02-19T20:01:23.996Z,66.76
2023-02-19T20:02:56.180Z,66.86
2023-02-19T20:04:28.438Z,66.41
2023-02-19T20:06:00.590Z,66.40
2023-02-19T20:07:32.894Z,66.16
2023-02-19T20:09:04.902Z,66.13
2023-02-19T20:10:36.975Z,66.32
2023-02-19T20:12:09.165Z,67.05
2023-02-19T20:13:43.680Z,67.26
2023-02-19T20:16:55.111Z,67.04
2023-02-19T20:18:27.824Z,66.99
2023-02-19T20:20:00.107Z,67.76
2023-02-19T20:21:32.446Z,67.32
2023-02-19T20:23:04.517Z,67.36
2023-02-19T20:24:36.639Z,67.11
2023-02-19T20:26:08.806Z,66.66
2023-02-19T20:27:40.832Z,66.66
2023-02-19T20:29:13.317Z,66.85
2023-02-19T20:30:45.363Z,66.73
2023-02-19T20:32:20.675Z,66.67
2023-02-19T20:33:52.911Z,66.14
2023-02-19T20:35:28.847Z,65.76
2023-02-19T20:37:01.077Z,65.99
2023-02-19T20:38:33.072Z,65.94
2023-02-19T20:40:05.973Z,65.75
2023-02-19T20:41:37.965Z,64.72
2023-02-19T20:43:10.033Z,63.30
2023-02-19T20:44:43.229Z,61.69
2023-02-19T20:46:15.610Z,59.92
2023-02-19T20:47:48.323Z,58.37
2023-02-19T20:49:22.457Z,57.69
2023-02-19T20:50:59.695Z,57.46
2023-02-19T20:52:31.679Z,56.49
2023-02-19T20:54:03.857Z,55.45
2023-02-19T20:55:36.065Z,55.28
2023-02-19T20:57:08.304Z,55.54
2023-02-19T20:58:43.555Z,55.33
2023-02-19T21:00:17.356Z,55.27
2023-02-19T21:01:49.642Z,54.69
2023-02-19T21:03:22.357Z,54.76
2023-02-19T21:04:54.306Z,53.96
2023-02-19T21:06:26.327Z,53.42
2023-02-19T21:07:58.446Z,52.67
2023-02-19T21:09:30.474Z,52.51
2023-02-19T21:11:02.487Z,52.33
2023-02-19T21:12:34.565Z,51.70
2023-02-19T21:14:06.643Z,51.59
2023-02-19T21:15:39.028Z,51.98
2023-02-19T21:17:11.044Z,51.69
2023-02-19T21:18:43.147Z,51.49
2023-02-19T21:20:18.226Z,51.03
2023-02-19T21:21:50.407Z,50.52
2023-02-19T21:23:22.464Z,50.50
2023-02-19T21:24:54.594Z,50.16
2023-02-19T21:26:36.902Z,50.32
2023-02-19T21:28:09.990Z,50.62
2023-02-19T21:29:42.147Z,50.19
2023-02-19T21:31:14.462Z,50.08
2023-02-19T21:32:46.569Z,50.16
2023-02-19T21:34:21.493Z,49.83
2023-02-19T21:35:53.577Z,49.42
2023-02-19T21:37:25.702Z,49.68
2023-02-19T21:38:57.885Z,49.64
2023-02-19T21:40:33.293Z,49.56
2023-02-19T21:42:05.584Z,49.52
2023-02-19T21:43:37.620Z,49.58
2023-02-19T21:45:09.900Z,49.29
2023-02-19T21:46:42.284Z,49.39
2023-02-19T21:48:15.442Z,49.27
2023-02-19T21:49:47.520Z,49.28
2023-02-19T21:51:20.958Z,49.37
2023-02-19T21:52:52.840Z,49.29
2023-02-19T21:54:25.693Z,49.47
2023-02-19T21:55:59.204Z,49.42
2023-02-19T21:57:32.367Z,49.03
2023-02-19T21:59:04.660Z,49.30
2023-02-19T22:00:36.848Z,49.13
2023-02-19T22:02:09.939Z,49.18
2023-02-19T22:03:41.951Z,49.15
2023-02-19T22:05:14.041Z,49.27
2023-02-19T22:06:46.182Z,49.32